Time;durP1;ratioP1;P1;durP2;ratioP2;P2;SDS_P1;SDS_P2;PMS_P1;PMS_P2;Temp;Humidity;BMP_temperature;BMP_pressure;BME280_temperature;BME280_humidity;BME280_pressure;Samples;Min_cycle;Max_cycle;Signal;HPM_P1;HPM_P2
2021/11/09 00:01:17;;;;;;;13.50;7.17;;;8.70;99.90;;;;;;5026673;28;20352;-70
2021/11/09 00:03:48;;;;;;;17.03;7.20;;;8.70;99.90;;;;;;5026867;28;20232;-70
2021/11/09 00:06:21;;;;;;;15.00;6.73;;;8.70;99.90;;;;;;5026425;28;20663;-70
2021/11/09 00:08:54;;;;;;;20.97;7.27;;;8.70;99.90;;;;;;5026922;28;20233;-70
2021/11/09 00:11:21;;;;;;;17.27;7.27;;;8.70;99.90;;;;;;5026849;28;20189;-70
2021/11/09 00:13:48;;;;;;;18.03;7.43;;;8.70;99.90;;;;;;5026690;28;20609;-72
2021/11/09 00:16:16;;;;;;;12.97;6.80;;;8.70;99.90;;;;;;5026662;28;20209;-71
2021/11/09 00:18:42;;;;;;;14.67;6.90;;;8.70;99.90;;;;;;5026798;28;20285;-72
2021/11/09 00:21:09;;;;;;;15.17;7.30;;;8.70;99.90;;;;;;5026741;28;20201;-71
2021/11/09 00:23:36;;;;;;;15.23;6.63;;;8.70;99.90;;;;;;5026348;28;20794;-71
2021/11/09 00:26:03;;;;;;;12.97;6.97;;;8.70;99.90;;;;;;5026408;28;20228;-72
2021/11/09 00:28:29;;;;;;;16.90;6.33;;;8.70;99.90;;;;;;5026425;28;20212;-71
2021/11/09 00:30:56;;;;;;;14.07;7.03;;;8.70;99.90;;;;;;5026518;28;20297;-71
2021/11/09 00:33:24;;;;;;;13.17;6.80;;;8.70;99.90;;;;;;5026124;28;20241;-71
2021/11/09 00:35:51;;;;;;;14.57;6.60;;;8.70;99.90;;;;;;5026600;28;20201;-71
2021/11/09 00:38:17;;;;;;;13.97;6.70;;;8.80;99.90;;;;;;5026260;28;20591;-71
2021/11/09 00:40:45;;;;;;;12.87;7.50;;;8.80;99.90;;;;;;5026607;28;20233;-71
2021/11/09 00:43:14;;;;;;;13.27;6.37;;;8.80;99.90;;;;;;5026456;28;20229;-71
2021/11/09 00:45:41;;;;;;;9.47;5.90;;;8.80;99.90;;;;;;5026530;28;20204;-71
2021/11/09 00:48:08;;;;;;;14.70;6.07;;;8.80;99.90;;;;;;5026374;28;20229;-71
2021/11/09 00:50:37;;;;;;;11.70;6.47;;;8.70;99.90;;;;;;5025941;28;20229;-71
2021/11/09 00:53:05;;;;;;;12.70;6.60;;;8.70;99.90;;;;;;5026287;28;20232;-71
2021/11/09 00:55:31;;;;;;;9.40;6.20;;;8.70;99.90;;;;;;5026059;28;20217;-71
2021/11/09 00:57:58;;;;;;;13.30;5.20;;;8.70;99.90;;;;;;5026171;28;20220;-71
2021/11/09 01:00:28;;;;;;;9.00;5.60;;;8.70;99.90;;;;;;5025736;28;20786;-71
2021/11/09 01:02:56;;;;;;;8.40;5.00;;;8.70;99.90;;;;;;5026303;28;20216;-71
2021/11/09 01:05:26;;;;;;;12.47;5.50;;;8.70;99.90;;;;;;5025789;28;20209;-71
2021/11/09 01:07:58;;;;;;;7.70;4.87;;;8.70;99.90;;;;;;5025851;28;20250;-71
2021/11/09 01:10:26;;;;;;;5.63;5.10;;;8.70;99.90;;;;;;5025688;28;20193;-71
2021/11/09 01:12:53;;;;;;;11.00;5.03;;;8.70;99.90;;;;;;5026031;28;20415;-71
2021/11/09 01:15:23;;;;;;;13.00;5.00;;;8.70;99.90;;;;;;5025979;28;20225;-71
2021/11/09 01:17:51;;;;;;;7.83;4.83;;;8.70;99.90;;;;;;5026051;28;20262;-71
2021/11/09 01:20:22;;;;;;;7.77;4.70;;;8.70;99.90;;;;;;5025634;28;20249;-72
2021/11/09 01:22:51;;;;;;;5.23;4.70;;;8.60;99.90;;;;;;5025872;28;20272;-71
2021/11/09 01:25:20;;;;;;;8.90;5.00;;;8.70;99.90;;;;;;5025674;28;20240;-71
2021/11/09 01:27:47;;;;;;;5.23;4.73;;;8.60;99.90;;;;;;5025816;28;20243;-71
2021/11/09 01:30:15;;;;;;;5.30;4.80;;;8.70;99.90;;;;;;5025744;28;20240;-71
2021/11/09 01:32:41;;;;;;;7.30;4.87;;;8.70;99.90;;;;;;5025775;28;20235;-71
2021/11/09 01:35:10;;;;;;;8.83;5.13;;;8.70;99.90;;;;;;5025711;28;21024;-71
2021/11/09 01:37:38;;;;;;;8.73;5.47;;;8.70;99.90;;;;;;5025272;28;20678;-71
2021/11/09 01:40:07;;;;;;;5.67;5.00;;;8.70;99.90;;;;;;5025750;28;20283;-72
2021/11/09 01:42:35;;;;;;;5.03;4.63;;;8.70;99.90;;;;;;5025400;28;20296;-72
2021/11/09 01:45:03;;;;;;;6.63;5.77;;;8.70;99.90;;;;;;5024918;28;20278;-72
2021/11/09 01:47:29;;;;;;;9.17;6.27;;;8.70;99.90;;;;;;5024707;28;20252;-72
2021/11/09 01:49:56;;;;;;;10.03;6.33;;;8.70;99.90;;;;;;5025172;28;20248;-72
2021/11/09 01:52:22;;;;;;;10.30;6.20;;;8.70;99.90;;;;;;5025554;28;20205;-72
2021/11/09 01:54:49;;;;;;;8.50;6.20;;;8.70;99.90;;;;;;5025155;28;20754;-72
2021/11/09 01:57:16;;;;;;;11.00;6.87;;;8.60;99.90;;;;;;5025047;28;20744;-72
2021/11/09 01:59:44;;;;;;;12.50;7.13;;;8.60;99.90;;;;;;5025026;28;20738;-72
2021/11/09 02:02:11;;;;;;;10.43;7.00;;;8.60;99.90;;;;;;5025454;28;20204;-72
2021/11/09 02:04:38;;;;;;;11.17;6.83;;;8.60;99.90;;;;;;5025215;28;20687;-72
2021/11/09 02:07:05;;;;;;;15.30;6.63;;;8.60;99.90;;;;;;5025354;28;20706;-71
2021/11/09 02:09:31;;;;;;;14.87;7.37;;;8.70;99.90;;;;;;5024975;28;20305;-71
2021/11/09 02:11:58;;;;;;;12.53;7.33;;;8.70;99.90;;;;;;5025161;28;20236;-71
2021/11/09 02:14:25;;;;;;;15.43;8.13;;;8.60;99.90;;;;;;5016841;28;20209;-71
2021/11/09 02:16:53;;;;;;;12.07;6.90;;;8.70;99.90;;;;;;5005569;28;20251;-71
2021/11/09 02:19:20;;;;;;;11.63;7.20;;;8.70;99.90;;;;;;5005295;28;20220;-71
2021/11/09 02:21:48;;;;;;;14.67;6.67;;;8.70;99.90;;;;;;5005573;28;20278;-71
2021/11/09 02:24:15;;;;;;;15.47;6.93;;;8.60;99.90;;;;;;5004995;28;20725;-72
2021/11/09 02:26:42;;;;;;;13.60;7.17;;;8.60;99.90;;;;;;5005179;28;20755;-72
2021/11/09 02:29:09;;;;;;;16.27;6.90;;;8.70;99.90;;;;;;5005212;28;20235;-72
2021/11/09 02:31:35;;;;;;;11.67;6.77;;;8.60;99.90;;;;;;5005349;28;20206;-72
2021/11/09 02:34:02;;;;;;;12.40;7.50;;;8.60;99.90;;;;;;5005170;28;20217;-72
2021/11/09 02:36:29;;;;;;;15.67;6.87;;;8.60;99.90;;;;;;5005069;28;20210;-72
2021/11/09 02:38:57;;;;;;;19.63;7.50;;;8.60;99.90;;;;;;5005148;28;20263;-72
2021/11/09 02:41:23;;;;;;;14.33;7.33;;;8.60;99.90;;;;;;5005135;28;20201;-72
2021/11/09 02:43:51;;;;;;;17.87;7.70;;;8.60;99.90;;;;;;5004880;28;20979;-72
2021/11/09 02:49:06;;;;;;;14.07;7.47;;;8.60;99.90;;;;;;5006874;28;20266;-72
2021/11/09 02:51:36;;;;;;;14.90;7.83;;;8.60;99.90;;;;;;5004993;28;20238;-72
2021/11/09 02:54:11;;;;;;;14.93;7.20;;;8.50;99.90;;;;;;5005263;28;20614;-72
2021/11/09 02:56:43;;;;;;;14.73;7.13;;;8.60;99.90;;;;;;5005272;28;20209;-72
2021/11/09 02:59:21;;;;;;;18.00;6.87;;;8.60;99.90;;;;;;5008338;28;20284;-72
2021/11/09 03:01:52;;;;;;;15.37;6.97;;;8.60;99.90;;;;;;5008370;28;20575;-72
2021/11/09 03:04:31;;;;;;;17.77;7.67;;;8.60;99.90;;;;;;5007945;28;20229;-72
2021/11/09 03:07:02;;;;;;;12.27;7.07;;;8.50;99.90;;;;;;5008215;28;20200;-72
2021/11/09 03:09:40;;;;;;;15.90;8.13;;;8.60;99.90;;;;;;5008177;28;20222;-71
2021/11/09 03:12:09;;;;;;;17.60;7.40;;;8.60;99.90;;;;;;5008403;28;20246;-71
2021/11/09 03:14:37;;;;;;;15.80;8.43;;;8.60;99.90;;;;;;5008078;28;20210;-72
2021/11/09 03:17:12;;;;;;;15.40;8.00;;;8.60;99.90;;;;;;5008418;28;20206;-73
2021/11/09 03:19:41;;;;;;;17.07;7.70;;;8.60;99.90;;;;;;5007917;28;20213;-72
2021/11/09 03:44:19;;;;;;;16.83;7.80;;;8.70;99.90;;;;;;5005912;28;20306;-72
2021/11/09 03:46:49;;;;;;;19.77;8.30;;;8.60;99.90;;;;;;5024758;28;20782;-72
2021/11/09 03:49:19;;;;;;;16.83;7.77;;;8.70;99.90;;;;;;5024292;28;20725;-71
2021/11/09 03:51:46;;;;;;;16.80;7.20;;;8.60;99.90;;;;;;5024276;28;20220;-71
2021/11/09 03:54:14;;;;;;;13.77;7.40;;;8.60;99.90;;;;;;5024730;28;20205;-71
2021/11/09 03:56:47;;;;;;;13.93;7.87;;;8.60;99.90;;;;;;5024656;28;20519;-72
2021/11/09 03:59:17;;;;;;;14.17;7.27;;;8.60;99.90;;;;;;5024715;28;20197;-71
2021/11/09 04:02:01;;;;;;;15.23;7.77;;;8.60;99.90;;;;;;5024751;28;20233;-71
2021/11/09 04:04:35;;;;;;;17.10;7.97;;;8.60;99.90;;;;;;5023715;28;20836;-72
2021/11/09 04:07:14;;;;;;;14.37;6.73;;;8.60;99.90;;;;;;5024479;28;20269;-71
2021/11/09 04:12:36;;;;;;;13.70;7.10;;;8.60;99.90;;;;;;5025219;27;20204;-71
2021/11/09 04:15:15;;;;;;;18.33;7.43;;;8.70;99.90;;;;;;5006212;28;20217;-72
2021/11/09 04:18:00;;;;;;;15.10;7.67;;;8.70;99.90;;;;;;5016533;28;20263;-71
2021/11/09 04:20:37;;;;;;;14.40;7.53;;;8.60;99.90;;;;;;5025644;28;20197;-71
2021/11/09 04:26:09;;;;;;;11.50;7.30;;;8.70;99.90;;;;;;5025896;28;20280;-71
2021/11/09 04:28:46;;;;;;;17.47;7.00;;;8.70;99.90;;;;;;5026968;28;20193;-72
2021/11/09 04:31:26;;;;;;;20.70;8.33;;;8.70;99.90;;;;;;5026587;28;20246;-71
2021/11/09 04:34:19;;;;;;;15.37;8.50;;;8.70;99.90;;;;;;5026528;28;20201;-71
2021/11/09 04:53:43;;;;;;;16.67;8.40;;;8.60;99.90;;;;;;5025757;28;20196;-71
2021/11/09 05:01:50;;;;;;;17.67;9.03;;;8.70;99.90;;;;;;5025186;28;20232;-72
2021/11/09 05:09:51;;;;;;;17.87;8.17;;;8.70;99.90;;;;;;5025807;28;20760;-71
2021/11/09 05:12:18;;;;;;;15.10;7.60;;;8.60;99.90;;;;;;5025957;28;20200;-71
2021/11/09 05:14:44;;;;;;;14.70;8.37;;;8.70;99.90;;;;;;5025809;28;20209;-71
2021/11/09 05:17:12;;;;;;;16.50;7.90;;;8.60;99.90;;;;;;5025795;28;20205;-71
2021/11/09 05:19:39;;;;;;;12.90;7.77;;;8.70;99.90;;;;;;5025390;28;20236;-71
2021/11/09 05:22:06;;;;;;;12.80;8.23;;;8.70;99.90;;;;;;5026069;28;20205;-71
2021/11/09 05:24:32;;;;;;;9.33;7.70;;;8.70;99.90;;;;;;5025794;28;20236;-71
2021/11/09 05:26:59;;;;;;;14.53;8.30;;;8.70;99.90;;;;;;5025918;28;20205;-71
2021/11/09 05:29:26;;;;;;;18.03;8.10;;;8.60;99.90;;;;;;5025524;28;20205;-71
2021/11/09 05:31:57;;;;;;;16.87;8.13;;;8.60;99.90;;;;;;5025810;28;20246;-71
2021/11/09 05:34:29;;;;;;;15.47;8.60;;;8.70;99.90;;;;;;5025186;28;20189;-71
2021/11/09 05:36:56;;;;;;;12.17;7.80;;;8.70;99.90;;;;;;5025873;28;20229;-71
2021/11/09 05:39:30;;;;;;;16.57;8.83;;;8.80;99.90;;;;;;5025449;28;20213;-71
2021/11/09 05:41:56;;;;;;;15.57;8.90;;;8.80;99.90;;;;;;5025803;28;20193;-71
2021/11/09 05:44:23;;;;;;;14.93;8.50;;;8.70;99.90;;;;;;5025427;28;20238;-71
2021/11/09 05:46:50;;;;;;;16.37;9.70;;;8.70;99.90;;;;;;5025735;28;20253;-71
2021/11/09 05:49:16;;;;;;;15.53;9.77;;;8.60;99.90;;;;;;5025333;28;20260;-71
2021/11/09 05:51:44;;;;;;;16.90;9.37;;;8.60;99.90;;;;;;5025654;28;20340;-71
2021/11/09 05:54:11;;;;;;;16.93;9.90;;;8.60;99.90;;;;;;5025234;28;20237;-71
2021/11/09 05:56:38;;;;;;;16.30;9.60;;;8.60;99.90;;;;;;5025215;28;20321;-71
2021/11/09 05:59:05;;;;;;;17.83;10.03;;;8.60;99.90;;;;;;5025234;28;20209;-71
2021/11/09 06:01:32;;;;;;;14.63;8.87;;;8.60;99.90;;;;;;5024937;28;20272;-71
2021/11/09 06:03:58;;;;;;;20.20;9.67;;;8.60;99.90;;;;;;5025047;28;20244;-71
2021/11/09 06:06:25;;;;;;;19.90;10.23;;;8.60;99.90;;;;;;5024670;28;20268;-71
2021/11/09 06:08:53;;;;;;;18.07;9.50;;;8.70;99.90;;;;;;5024958;28;20232;-71
2021/11/09 06:11:20;;;;;;;16.80;9.53;;;8.70;99.90;;;;;;5024670;28;20202;-71
2021/11/09 06:13:47;;;;;;;16.47;9.60;;;8.70;99.90;;;;;;5023890;28;20212;-72
2021/11/09 06:16:14;;;;;;;14.70;9.30;;;8.70;99.90;;;;;;5025300;28;20221;-71
2021/11/09 06:18:41;;;;;;;18.30;10.27;;;8.70;99.90;;;;;;5025164;28;20219;-71
2021/11/09 06:21:07;;;;;;;20.07;10.83;;;8.80;99.90;;;;;;5025171;28;20284;-71
2021/11/09 06:23:34;;;;;;;19.70;9.97;;;8.70;99.90;;;;;;5024743;28;20257;-71
2021/11/09 06:26:03;;;;;;;21.73;9.93;;;8.70;99.90;;;;;;5024816;28;20312;-71
2021/11/09 06:28:30;;;;;;;15.93;9.73;;;8.70;99.90;;;;;;5024799;28;20261;-71
2021/11/09 06:30:57;;;;;;;12.37;9.13;;;8.70;99.90;;;;;;5025001;28;20220;-71
2021/11/09 06:33:23;;;;;;;16.63;9.87;;;8.70;99.90;;;;;;5027677;28;20233;-71
2021/11/09 06:35:51;;;;;;;21.07;10.10;;;8.80;99.90;;;;;;5028366;28;20273;-71
2021/11/09 06:38:19;;;;;;;16.70;10.47;;;8.80;99.90;;;;;;5028363;28;20212;-71
2021/11/09 06:40:45;;;;;;;15.50;10.03;;;8.80;99.90;;;;;;5028310;28;20219;-71
2021/11/09 06:43:13;;;;;;;19.40;10.40;;;8.80;99.90;;;;;;5028521;28;20300;-71
2021/11/09 06:45:40;;;;;;;15.23;8.93;;;8.80;99.90;;;;;;5027845;28;20229;-71
2021/11/09 06:48:07;;;;;;;26.87;9.60;;;8.80;99.90;;;;;;5028217;28;20324;-71
2021/11/09 06:50:34;;;;;;;13.43;9.37;;;8.80;99.90;;;;;;5027664;28;20736;-71
2021/11/09 06:53:01;;;;;;;17.77;9.00;;;8.80;99.90;;;;;;5027987;28;20228;-71
2021/11/09 06:55:28;;;;;;;18.27;9.40;;;8.80;99.90;;;;;;5027641;28;20238;-71
2021/11/09 06:57:56;;;;;;;15.97;9.43;;;8.80;99.90;;;;;;5027902;28;20208;-71
2021/11/09 07:00:25;;;;;;;17.03;10.07;;;8.80;99.90;;;;;;5027486;28;20233;-71
2021/11/09 07:02:52;;;;;;;16.07;9.73;;;8.80;99.90;;;;;;5028208;28;20208;-71
2021/11/09 07:05:19;;;;;;;15.73;9.27;;;8.80;99.90;;;;;;5027685;28;20277;-71
2021/11/09 07:07:46;;;;;;;13.63;9.00;;;8.80;99.90;;;;;;5028069;28;20224;-71
2021/11/09 07:10:13;;;;;;;14.37;9.00;;;8.80;99.90;;;;;;5028083;28;20254;-71
2021/11/09 07:12:41;;;;;;;19.50;10.10;;;8.90;99.90;;;;;;5027907;28;20209;-71
2021/11/09 07:15:09;;;;;;;15.33;9.50;;;8.90;99.90;;;;;;5027211;28;20209;-72
2021/11/09 07:17:39;;;;;;;13.07;8.87;;;8.90;99.90;;;;;;5027365;28;20292;-71
2021/11/09 07:20:08;;;;;;;16.53;9.07;;;8.90;99.90;;;;;;5027689;28;20193;-72
2021/11/09 07:22:34;;;;;;;15.27;8.57;;;8.90;99.90;;;;;;5027514;28;20212;-71
2021/11/09 07:25:01;;;;;;;18.57;9.07;;;9.00;99.90;;;;;;5027534;28;20780;-71
2021/11/09 07:27:28;;;;;;;16.17;9.73;;;9.00;99.90;;;;;;5027745;28;20209;-71
2021/11/09 07:29:56;;;;;;;15.87;8.67;;;9.00;99.90;;;;;;5027652;28;20295;-71
2021/11/09 07:32:24;;;;;;;13.20;8.57;;;9.00;99.90;;;;;;5027611;28;20257;-71
2021/11/09 07:34:53;;;;;;;20.30;8.87;;;9.00;99.90;;;;;;5027533;28;20209;-71
2021/11/09 07:37:20;;;;;;;16.10;9.10;;;9.00;99.90;;;;;;5027277;28;20205;-71
2021/11/09 07:39:47;;;;;;;12.90;8.00;;;8.90;99.90;;;;;;5027451;28;20209;-71
2021/11/09 07:42:15;;;;;;;17.93;9.03;;;8.90;99.90;;;;;;5026756;28;20693;-71
2021/11/09 07:44:42;;;;;;;15.53;8.90;;;8.90;99.90;;;;;;5027265;28;20229;-71
2021/11/09 07:47:09;;;;;;;21.63;9.17;;;8.90;99.90;;;;;;5027229;28;20236;-71
2021/11/09 07:49:37;;;;;;;16.73;9.20;;;9.00;99.90;;;;;;5026725;28;20481;-71
2021/11/09 07:52:07;;;;;;;18.00;9.20;;;9.00;99.90;;;;;;5027304;28;20213;-71
2021/11/09 07:54:35;;;;;;;14.90;8.77;;;9.00;99.90;;;;;;5027046;28;20217;-71
2021/11/09 07:57:05;;;;;;;15.73;9.27;;;9.00;99.90;;;;;;5026873;28;20765;-71
2021/11/09 07:59:35;;;;;;;16.23;8.77;;;8.90;99.90;;;;;;5026738;28;20224;-71
2021/11/09 08:02:05;;;;;;;17.30;8.27;;;9.00;99.90;;;;;;5027269;28;20250;-71
2021/11/09 08:04:37;;;;;;;16.07;8.50;;;9.00;99.90;;;;;;5026827;28;20323;-71
2021/11/09 08:07:11;;;;;;;13.90;8.77;;;9.00;99.90;;;;;;5026804;28;20240;-71
2021/11/09 08:09:37;;;;;;;14.23;8.67;;;9.00;99.90;;;;;;5026646;28;20189;-71
2021/11/09 08:12:06;;;;;;;14.70;8.63;;;9.00;99.90;;;;;;5026432;28;20242;-72
2021/11/09 08:14:33;;;;;;;14.23;8.13;;;9.00;99.90;;;;;;5025994;28;20663;-71
2021/11/09 08:17:00;;;;;;;15.33;8.37;;;9.10;99.90;;;;;;5026920;28;20266;-71
2021/11/09 08:19:28;;;;;;;11.33;8.20;;;9.10;99.90;;;;;;5026489;28;20650;-71
2021/11/09 08:21:55;;;;;;;17.63;8.83;;;9.10;99.90;;;;;;5026777;28;20577;-71
2021/11/09 08:24:24;;;;;;;15.03;8.93;;;9.10;99.90;;;;;;5026468;28;20256;-71
2021/11/09 08:26:53;;;;;;;14.90;8.20;;;9.10;99.90;;;;;;5026692;28;20233;-71
2021/11/09 08:29:23;;;;;;;14.57;8.20;;;9.10;99.90;;;;;;5026750;28;20208;-71
2021/11/09 08:31:51;;;;;;;13.37;8.30;;;9.10;99.90;;;;;;5026300;28;20657;-72
2021/11/09 08:34:19;;;;;;;11.57;8.10;;;9.10;99.90;;;;;;5025934;28;20698;-72
2021/11/09 08:36:46;;;;;;;12.70;8.53;;;9.20;99.90;;;;;;5026433;28;20212;-71
2021/11/09 08:39:19;;;;;;;16.23;8.53;;;9.10;99.90;;;;;;5026414;28;20208;-72
2021/11/09 08:41:49;;;;;;;12.63;8.60;;;9.20;99.90;;;;;;5026686;28;20307;-71
2021/11/09 08:44:18;;;;;;;19.70;8.43;;;9.20;99.90;;;;;;5026363;28;20225;-71
2021/11/09 08:46:49;;;;;;;15.07;8.63;;;9.20;99.90;;;;;;5026248;28;20240;-71
2021/11/09 08:49:18;;;;;;;13.50;8.57;;;9.20;99.90;;;;;;5025930;28;20639;-71
2021/11/09 08:51:46;;;;;;;13.20;8.17;;;9.20;99.90;;;;;;5026398;28;20209;-72
2021/11/09 08:54:15;;;;;;;17.03;8.33;;;9.20;99.90;;;;;;5025884;28;20666;-71
2021/11/09 09:05:05;;;;;;;18.40;9.33;;;9.20;99.90;;;;;;5025708;28;20271;-72
2021/11/09 09:07:33;;;;;;;11.73;9.07;;;9.30;99.90;;;;;;5025624;28;20323;-72
2021/11/09 09:10:01;;;;;;;11.17;8.83;;;9.30;99.90;;;;;;5026092;28;20220;-71
2021/11/09 09:12:29;;;;;;;13.63;9.10;;;9.30;99.90;;;;;;5025762;28;20666;-71
2021/11/09 09:14:58;;;;;;;13.73;9.10;;;9.30;99.90;;;;;;5025695;28;20296;-72
2021/11/09 09:17:25;;;;;;;12.63;8.63;;;9.40;99.90;;;;;;5026009;28;20261;-71
2021/11/09 09:19:55;;;;;;;15.63;9.37;;;9.30;99.90;;;;;;5025419;28;20269;-71
2021/11/09 09:22:26;;;;;;;19.43;11.23;;;9.40;99.90;;;;;;5025054;28;20225;-71
2021/11/09 09:25:10;;;;;;;19.90;11.30;;;9.40;99.90;;;;;;5025765;28;20199;-72
2021/11/09 09:27:53;;;;;;;14.90;8.77;;;9.40;99.90;;;;;;5025629;28;20257;-72
2021/11/09 09:30:32;;;;;;;15.20;8.73;;;9.50;99.90;;;;;;5025380;28;20889;-71
2021/11/09 09:33:10;;;;;;;13.27;8.90;;;9.50;99.90;;;;;;5025811;28;20197;-72
2021/11/09 09:52:20;;;;;;;17.77;9.27;;;9.70;99.90;;;;;;5025175;28;20623;-71
2021/11/09 09:55:03;;;;;;;16.57;8.80;;;9.70;99.90;;;;;;5025440;28;20208;-71
2021/11/09 09:57:32;;;;;;;14.37;8.93;;;9.80;99.90;;;;;;5025310;28;20199;-71
2021/11/09 09:59:59;;;;;;;18.33;9.30;;;9.80;99.90;;;;;;5025121;28;20258;-71
2021/11/09 10:02:28;;;;;;;12.10;8.40;;;9.80;99.90;;;;;;5025481;28;20262;-71
2021/11/09 10:04:57;;;;;;;12.80;8.53;;;9.80;99.90;;;;;;5025339;28;20205;-71
2021/11/09 10:07:30;;;;;;;14.93;8.97;;;9.90;99.90;;;;;;5026357;28;20239;-71
2021/11/09 10:09:57;;;;;;;14.07;9.07;;;9.90;99.90;;;;;;5028796;28;20575;-71
2021/11/09 10:12:31;;;;;;;17.27;8.53;;;9.90;99.90;;;;;;5028751;28;20236;-71
2021/11/09 10:15:00;;;;;;;10.80;8.00;;;9.90;99.90;;;;;;5028617;28;20189;-71
2021/11/09 10:17:29;;;;;;;11.70;8.00;;;9.90;99.90;;;;;;5028638;28;20257;-72
2021/11/09 10:19:58;;;;;;;17.30;7.83;;;9.90;99.90;;;;;;5028536;28;20216;-72
2021/11/09 10:22:27;;;;;;;15.67;8.30;;;9.90;99.90;;;;;;5028450;28;20220;-71
2021/11/09 10:24:57;;;;;;;13.27;8.20;;;10.00;99.90;;;;;;5028123;28;20213;-71
2021/11/09 10:27:25;;;;;;;9.83;7.40;;;10.00;99.90;;;;;;5028406;28;20216;-72
2021/11/09 10:29:54;;;;;;;12.80;8.20;;;10.10;99.90;;;;;;5028445;28;20237;-72
2021/11/09 10:32:23;;;;;;;13.70;8.70;;;10.20;99.90;;;;;;5028395;28;20212;-72
2021/11/09 10:34:52;;;;;;;15.80;8.83;;;10.20;99.90;;;;;;5028098;28;20659;-72
2021/11/09 10:37:23;;;;;;;16.33;8.37;;;10.20;99.90;;;;;;5027864;28;20201;-72
2021/11/09 10:39:51;;;;;;;13.07;8.27;;;10.30;99.90;;;;;;5028213;28;20193;-72
2021/11/09 10:42:19;;;;;;;12.80;8.40;;;10.30;99.90;;;;;;5028291;28;20213;-72
2021/11/09 10:44:53;;;;;;;11.70;7.70;;;10.40;99.90;;;;;;5028287;28;20248;-72
2021/11/09 10:47:23;;;;;;;10.77;6.33;;;10.40;99.90;;;;;;5027999;28;20275;-72
2021/11/09 10:49:52;;;;;;;11.40;7.03;;;10.50;99.90;;;;;;5028126;28;20216;-72
2021/11/09 10:52:25;;;;;;;14.00;7.60;;;10.50;99.90;;;;;;5028144;28;20209;-72
2021/11/09 10:54:57;;;;;;;10.40;7.07;;;10.50;99.90;;;;;;5028224;28;20207;-72
2021/11/09 10:57:34;;;;;;;12.93;6.83;;;10.60;99.90;;;;;;5028133;28;20253;-72
2021/11/09 11:00:18;;;;;;;10.77;6.67;;;10.60;99.90;;;;;;5027558;28;20228;-72
2021/11/09 11:05:30;;;;;;;9.90;6.00;;;10.60;99.90;;;;;;5026250;28;20294;-72
2021/11/09 11:07:57;;;;;;;9.33;6.63;;;10.50;99.90;;;;;;5026589;28;20767;-72
2021/11/09 11:10:32;;;;;;;13.03;6.80;;;10.50;99.90;;;;;;5026993;28;20205;-72
2021/11/09 11:13:20;;;;;;;10.53;6.43;;;10.50;99.90;;;;;;5026971;28;20287;-72
2021/11/09 11:16:07;;;;;;;10.90;6.20;;;10.60;99.90;;;;;;5026611;28;20455;-72
2021/11/09 11:18:36;;;;;;;12.83;6.40;;;10.60;99.90;;;;;;5026075;28;20249;-72
2021/11/09 11:21:04;;;;;;;12.70;5.30;;;10.60;99.90;;;;;;5026524;28;20228;-72
2021/11/09 11:23:32;;;;;;;13.10;5.87;;;10.70;99.90;;;;;;5026266;28;20597;-72
2021/11/09 11:25:59;;;;;;;9.53;5.40;;;10.70;99.90;;;;;;5026412;28;20209;-72
2021/11/09 11:28:27;;;;;;;9.37;5.10;;;10.70;99.90;;;;;;5026402;28;20205;-72
2021/11/09 11:30:55;;;;;;;8.97;4.87;;;10.80;99.90;;;;;;5026421;28;20217;-72
2021/11/09 11:33:22;;;;;;;12.40;5.27;;;10.80;99.90;;;;;;5025515;28;20238;-72
2021/11/09 11:35:49;;;;;;;7.53;5.00;;;10.80;99.90;;;;;;5025784;28;20233;-72
2021/11/09 11:38:20;;;;;;;8.53;4.53;;;10.80;99.90;;;;;;5025734;28;20284;-72
2021/11/09 11:40:47;;;;;;;8.20;4.50;;;10.80;99.90;;;;;;5025734;28;20250;-72
2021/11/09 11:43:14;;;;;;;7.03;4.40;;;10.70;99.90;;;;;;5025727;28;20244;-72
2021/11/09 11:45:48;;;;;;;7.20;4.40;;;10.70;99.90;;;;;;5025569;28;20273;-72
2021/11/09 11:48:16;;;;;;;6.90;4.07;;;10.80;99.90;;;;;;5025191;28;20326;-72
2021/11/09 11:50:44;;;;;;;10.40;4.53;;;10.80;99.90;;;;;;5018718;28;20217;-72
2021/11/09 11:53:12;;;;;;;8.67;4.23;;;10.80;99.90;;;;;;5019259;28;20240;-72
2021/11/09 11:55:40;;;;;;;11.17;3.77;;;10.80;99.90;;;;;;5025421;28;20236;-72
2021/11/09 11:58:08;;;;;;;6.97;3.20;;;10.80;99.90;;;;;;5025592;28;20239;-72
2021/11/09 12:00:41;;;;;;;8.47;3.80;;;10.80;99.90;;;;;;4990737;28;1008926;-72
2021/11/09 12:03:35;;;;;;;8.83;3.60;;;10.80;99.90;;;;;;5026082;28;20973;-72
2021/11/09 12:06:15;;;;;;;8.93;4.03;;;10.80;99.90;;;;;;5026535;28;20229;-72
2021/11/09 12:08:45;;;;;;;9.50;3.90;;;10.80;99.90;;;;;;5026282;28;20207;-72
2021/11/09 12:11:35;;;;;;;7.70;3.40;;;10.80;99.90;;;;;;5026646;28;20213;-72
2021/11/09 12:14:05;;;;;;;6.67;3.43;;;10.80;99.90;;;;;;5026447;28;20284;-72
2021/11/09 12:16:44;;;;;;;5.30;2.80;;;10.90;99.90;;;;;;5026156;28;20623;-72
2021/11/09 12:19:47;;;;;;;5.97;2.40;;;10.90;99.90;;;;;;5026495;28;20200;-72
2021/11/09 12:22:16;;;;;;;5.20;1.70;;;10.90;99.90;;;;;;5020927;28;20710;-72
2021/11/09 12:24:48;;;;;;;4.80;2.03;;;10.90;99.90;;;;;;5026341;28;20297;-72
2021/11/09 12:27:17;;;;;;;2.73;1.50;;;11.00;99.90;;;;;;5026040;28;20549;-72
2021/11/09 12:29:46;;;;;;;3.73;1.80;;;11.00;99.90;;;;;;5025396;28;20596;-72
2021/11/09 12:32:47;;;;;;;6.63;2.17;;;11.00;99.90;;;;;;5025526;28;20209;-72
2021/11/09 12:35:24;;;;;;;2.87;1.50;;;11.00;99.90;;;;;;5025887;28;20626;-72
2021/11/09 12:38:13;;;;;;;5.03;1.63;;;11.00;99.90;;;;;;5025714;28;20623;-72
2021/11/09 12:40:47;;;;;;;4.10;1.77;;;11.20;99.90;;;;;;5025906;28;20280;-72
2021/11/09 12:43:21;;;;;;;4.27;1.67;;;11.50;99.90;;;;;;5025916;28;20225;-72
2021/11/09 12:45:51;;;;;;;5.40;1.63;;;11.80;99.90;;;;;;5026469;28;20204;-72
2021/11/09 12:48:26;;;;;;;4.47;1.40;;;12.00;99.90;;;;;;5026358;28;20228;-72
2021/11/09 12:50:56;;;;;;;2.60;1.37;;;12.20;99.90;;;;;;5026555;28;20197;-72
2021/11/09 12:53:24;;;;;;;5.07;2.17;;;12.40;99.90;;;;;;5026045;28;20666;-72
2021/11/09 12:56:07;;;;;;;3.27;1.07;;;12.60;99.90;;;;;;5026040;28;20662;-72
2021/11/09 12:58:44;;;;;;;4.23;1.77;;;12.70;99.90;;;;;;5026151;28;20221;-72
2021/11/09 13:01:21;;;;;;;1.73;1.53;;;12.90;99.90;;;;;;5025956;28;20243;-72
2021/11/09 13:04:04;;;;;;;3.53;1.80;;;12.80;99.90;;;;;;5026546;28;20224;-72
2021/11/09 13:06:39;;;;;;;3.27;1.63;;;12.80;99.90;;;;;;5025794;28;20232;-72
2021/11/09 13:09:12;;;;;;;4.70;2.20;;;12.80;99.90;;;;;;5026235;28;20192;-72
2021/11/09 13:11:43;;;;;;;4.83;1.73;;;12.90;99.90;;;;;;5026165;28;20231;-72
2021/11/09 13:14:11;;;;;;;3.57;1.90;;;12.80;99.90;;;;;;5026122;28;20205;-72
2021/11/09 13:16:42;;;;;;;4.57;1.87;;;12.70;99.90;;;;;;5025853;28;20573;-72
2021/11/09 13:19:10;;;;;;;2.30;1.50;;;12.60;99.90;;;;;;5025979;28;20266;-72
2021/11/09 13:21:38;;;;;;;3.40;1.77;;;12.50;99.90;;;;;;5025756;28;20706;-72
2021/11/09 13:24:07;;;;;;;4.90;2.37;;;12.40;99.90;;;;;;5025571;28;20216;-72
2021/11/09 13:26:34;;;;;;;3.40;1.70;;;12.30;99.90;;;;;;5025692;28;20209;-72
2021/11/09 13:29:06;;;;;;;4.73;2.07;;;12.20;99.90;;;;;;5025552;28;20212;-72
2021/11/09 13:31:35;;;;;;;4.10;1.97;;;12.00;99.90;;;;;;5025609;28;20194;-72
2021/11/09 13:34:04;;;;;;;4.27;2.20;;;11.90;99.90;;;;;;5025624;28;20205;-72
2021/11/09 13:36:31;;;;;;;4.27;1.73;;;11.90;99.90;;;;;;5025461;28;20236;-72
2021/11/09 13:38:58;;;;;;;4.00;1.97;;;11.80;99.90;;;;;;5025724;28;20213;-72
2021/11/09 13:41:31;;;;;;;2.70;2.00;;;11.80;99.90;;;;;;5025233;28;20304;-72
2021/11/09 13:44:00;;;;;;;4.70;2.77;;;11.80;99.90;;;;;;5025637;28;20316;-72
2021/11/09 13:46:30;;;;;;;4.03;1.83;;;11.70;99.90;;;;;;5025556;28;20516;-72
2021/11/09 13:49:00;;;;;;;7.37;2.50;;;11.60;99.90;;;;;;5025514;28;20228;-72
2021/11/09 13:51:28;;;;;;;3.63;1.80;;;11.60;99.90;;;;;;5025320;28;20250;-72
2021/11/09 13:53:58;;;;;;;2.60;1.90;;;11.50;99.90;;;;;;5025213;28;20613;-72
2021/11/09 13:56:26;;;;;;;5.37;2.03;;;11.50;99.90;;;;;;5024945;28;20584;-72
2021/11/09 13:58:58;;;;;;;4.53;1.90;;;11.50;99.90;;;;;;5025409;28;20242;-72
2021/11/09 14:01:38;;;;;;;3.13;1.80;;;11.40;99.90;;;;;;5024836;28;20272;-72
2021/11/09 14:04:15;;;;;;;6.37;1.77;;;11.40;99.90;;;;;;5025259;28;20204;-72
2021/11/09 14:07:12;;;;;;;4.60;1.70;;;11.40;99.90;;;;;;5024806;28;20704;-72
2021/11/09 14:10:10;;;;;;;5.43;2.10;;;11.40;99.90;;;;;;5024983;28;20197;-72
2021/11/09 14:15:41;;;;;;;5.07;2.00;;;11.80;99.90;;;;;;5025175;28;20266;-72
2021/11/09 14:18:13;;;;;;;4.67;1.70;;;12.00;99.90;;;;;;5025088;28;20197;-72
2021/11/09 14:20:52;;;;;;;2.00;1.40;;;12.20;99.90;;;;;;5024946;28;20208;-72
2021/11/09 14:23:28;;;;;;;7.53;1.70;;;12.40;99.90;;;;;;5025074;28;20197;-72
2021/11/09 14:25:55;;;;;;;2.23;1.53;;;12.60;99.90;;;;;;5025034;28;20199;-72
2021/11/09 14:28:36;;;;;;;3.27;1.73;;;12.70;99.90;;;;;;5024909;28;20240;-72
2021/11/09 14:31:18;;;;;;;4.63;2.03;;;12.80;99.90;;;;;;5025134;28;20236;-72